sensor_id;sensor_type;location;lat;lon;timestamp;temperature;humidity
35495;DHT22;21608;49.300;6.846;2022-10-10T00:00:00;21.20;50.80
35495;DHT22;21608;49.300;6.846;2022-10-10T00:03:06;21.20;50.80
35495;DHT22;21608;49.300;6.846;2022-10-10T00:06:08;21.10;50.80
35495;DHT22;21608;49.300;6.846;2022-10-10T00:09:10;21.10;50.70
35495;DHT22;21608;49.300;6.846;2022-10-10T00:12:12;21.10;50.80
35495;DHT22;21608;49.300;6.846;2022-10-10T00:15:15;21.10;50.80
35495;DHT22;21608;49.300;6.846;2022-10-10T00:18:17;21.10;50.80
35495;DHT22;21608;49.300;6.846;2022-10-10T00:21:19;21.10;50.80
35495;DHT22;21608;49.300;6.846;2022-10-10T00:24:21;21.10;50.80
35495;DHT22;21608;49.300;6.846;2022-10-10T00:27:22;21.10;50.80
35495;DHT22;21608;49.300;6.846;2022-10-10T00:30:24;21.10;50.90
35495;DHT22;21608;49.300;6.846;2022-10-10T00:33:26;21.10;50.70
35495;DHT22;21608;49.300;6.846;2022-10-10T00:36:28;21.10;50.60
35495;DHT22;21608;49.300;6.846;2022-10-10T00:39:29;21.10;50.70
35495;DHT22;21608;49.300;6.846;2022-10-10T00:42:31;21.10;50.70
35495;DHT22;21608;49.300;6.846;2022-10-10T00:45:40;21.10;50.70
35495;DHT22;21608;49.300;6.846;2022-10-10T00:48:43;21.10;50.60
35495;DHT22;21608;49.300;6.846;2022-10-10T00:51:48;21.10;50.60
35495;DHT22;21608;49.300;6.846;2022-10-10T00:54:50;21.10;50.70
35495;DHT22;21608;49.300;6.846;2022-10-10T00:57:52;21.10;51.20
35495;DHT22;21608;49.300;6.846;2022-10-10T01:00:54;21.10;50.60
35495;DHT22;21608;49.300;6.846;2022-10-10T01:03:57;21.10;50.60
35495;DHT22;21608;49.300;6.846;2022-10-10T01:07:02;21.10;50.50
35495;DHT22;21608;49.300;6.846;2022-10-10T01:10:08;21.10;50.50
35495;DHT22;21608;49.300;6.846;2022-10-10T01:20:30;21.10;50.60
35495;DHT22;21608;49.300;6.846;2022-10-10T01:30:33;21.10;50.50
35495;DHT22;21608;49.300;6.846;2022-10-10T01:36:46;21.00;51.10
35495;DHT22;21608;49.300;6.846;2022-10-10T01:40:02;21.00;50.50
35495;DHT22;21608;49.300;6.846;2022-10-10T01:43:06;21.00;50.40
35495;DHT22;21608;49.300;6.846;2022-10-10T01:46:14;21.00;50.40
35495;DHT22;21608;49.300;6.846;2022-10-10T01:49:16;21.00;50.50
35495;DHT22;21608;49.300;6.846;2022-10-10T01:59:14;21.00;50.50
35495;DHT22;21608;49.300;6.846;2022-10-10T02:02:46;21.00;50.40
35495;DHT22;21608;49.300;6.846;2022-10-10T02:06:05;21.00;50.50
35495;DHT22;21608;49.300;6.846;2022-10-10T02:09:13;21.00;50.40
35495;DHT22;21608;49.300;6.846;2022-10-10T02:12:16;21.00;50.50
35495;DHT22;21608;49.300;6.846;2022-10-10T02:15:22;21.00;50.40
35495;DHT22;21608;49.300;6.846;2022-10-10T02:18:28;21.00;50.40
35495;DHT22;21608;49.300;6.846;2022-10-10T02:21:32;21.00;51.00
35495;DHT22;21608;49.300;6.846;2022-10-10T02:24:34;21.00;50.40
35495;DHT22;21608;49.300;6.846;2022-10-10T02:30:46;20.90;50.90
35495;DHT22;21608;49.300;6.846;2022-10-10T02:33:57;20.90;50.30
35495;DHT22;21608;49.300;6.846;2022-10-10T02:37:04;21.00;50.30
35495;DHT22;21608;49.300;6.846;2022-10-10T02:40:08;20.90;50.30
35495;DHT22;21608;49.300;6.846;2022-10-10T02:43:11;20.90;50.30
35495;DHT22;21608;49.300;6.846;2022-10-10T02:46:13;20.90;50.30
35495;DHT22;21608;49.300;6.846;2022-10-10T02:49:22;20.90;50.30
35495;DHT22;21608;49.300;6.846;2022-10-10T02:52:25;20.90;50.30
35495;DHT22;21608;49.300;6.846;2022-10-10T02:55:26;20.90;50.20
35495;DHT22;21608;49.300;6.846;2022-10-10T02:58:28;20.90;50.30
35495;DHT22;21608;49.300;6.846;2022-10-10T03:01:30;20.90;50.30
35495;DHT22;21608;49.300;6.846;2022-10-10T03:04:32;20.90;50.30
35495;DHT22;21608;49.300;6.846;2022-10-10T03:07:34;20.90;50.30
35495;DHT22;21608;49.300;6.846;2022-10-10T03:10:36;20.80;50.30
35495;DHT22;21608;49.300;6.846;2022-10-10T03:13:38;20.80;50.30
35495;DHT22;21608;49.300;6.846;2022-10-10T03:16:40;20.90;50.30
35495;DHT22;21608;49.300;6.846;2022-10-10T03:19:41;20.90;50.30
35495;DHT22;21608;49.300;6.846;2022-10-10T03:22:43;20.80;50.30
35495;DHT22;21608;49.300;6.846;2022-10-10T03:25:45;20.80;50.20
35495;DHT22;21608;49.300;6.846;2022-10-10T03:28:47;20.80;50.20
35495;DHT22;21608;49.300;6.846;2022-10-10T03:31:49;20.80;50.30
35495;DHT22;21608;49.300;6.846;2022-10-10T03:34:50;20.80;50.30
35495;DHT22;21608;49.300;6.846;2022-10-10T03:37:52;20.80;50.30
35495;DHT22;21608;49.300;6.846;2022-10-10T03:40:54;20.80;50.30
35495;DHT22;21608;49.300;6.846;2022-10-10T03:43:56;20.80;50.20
35495;DHT22;21608;49.300;6.846;2022-10-10T03:46:58;20.80;50.20
35495;DHT22;21608;49.300;6.846;2022-10-10T03:49:59;20.80;50.10
35495;DHT22;21608;49.300;6.846;2022-10-10T03:53:01;20.80;50.20
35495;DHT22;21608;49.300;6.846;2022-10-10T03:56:03;20.80;50.30
35495;DHT22;21608;49.300;6.846;2022-10-10T03:59:05;20.80;50.20
35495;DHT22;21608;49.300;6.846;2022-10-10T04:02:07;20.80;50.30
35495;DHT22;21608;49.300;6.846;2022-10-10T04:05:09;20.80;50.20
35495;DHT22;21608;49.300;6.846;2022-10-10T04:08:11;20.80;50.20
35495;DHT22;21608;49.300;6.846;2022-10-10T04:11:13;20.80;50.30
35495;DHT22;21608;49.300;6.846;2022-10-10T04:14:14;20.80;50.20
35495;DHT22;21608;49.300;6.846;2022-10-10T04:17:16;20.80;50.20
35495;DHT22;21608;49.300;6.846;2022-10-10T04:20:18;20.80;50.20
35495;DHT22;21608;49.300;6.846;2022-10-10T04:23:20;20.70;50.20
35495;DHT22;21608;49.300;6.846;2022-10-10T04:26:22;20.70;50.20
35495;DHT22;21608;49.300;6.846;2022-10-10T04:29:24;20.70;50.20
35495;DHT22;21608;49.300;6.846;2022-10-10T04:32:25;20.70;50.20
35495;DHT22;21608;49.300;6.846;2022-10-10T04:35:27;20.80;50.10
35495;DHT22;21608;49.300;6.846;2022-10-10T04:38:29;20.70;50.10
35495;DHT22;21608;49.300;6.846;2022-10-10T04:41:31;20.70;50.10
35495;DHT22;21608;49.300;6.846;2022-10-10T04:44:32;20.70;50.20
35495;DHT22;21608;49.300;6.846;2022-10-10T04:47:34;20.70;50.30
35495;DHT22;21608;49.300;6.846;2022-10-10T04:50:36;20.70;50.30
35495;DHT22;21608;49.300;6.846;2022-10-10T04:53:38;20.70;50.30
35495;DHT22;21608;49.300;6.846;2022-10-10T04:56:40;20.70;50.30
35495;DHT22;21608;49.300;6.846;2022-10-10T04:59:43;20.70;50.30
35495;DHT22;21608;49.300;6.846;2022-10-10T05:02:45;20.70;50.10
35495;DHT22;21608;49.300;6.846;2022-10-10T05:05:47;20.70;50.30
35495;DHT22;21608;49.300;6.846;2022-10-10T05:08:48;20.70;50.30
35495;DHT22;21608;49.300;6.846;2022-10-10T05:11:50;20.70;50.20
35495;DHT22;21608;49.300;6.846;2022-10-10T05:14:52;20.70;50.30
35495;DHT22;21608;49.300;6.846;2022-10-10T05:17:53;20.70;50.30
35495;DHT22;21608;49.300;6.846;2022-10-10T05:20:55;20.70;50.30
35495;DHT22;21608;49.300;6.846;2022-10-10T05:24:04;20.70;50.20
35495;DHT22;21608;49.300;6.846;2022-10-10T05:27:06;20.70;50.30
35495;DHT22;21608;49.300;6.846;2022-10-10T05:30:08;20.70;50.30
35495;DHT22;21608;49.300;6.846;2022-10-10T05:33:10;20.70;50.30
35495;DHT22;21608;49.300;6.846;2022-10-10T05:36:12;20.70;50.30
35495;DHT22;21608;49.300;6.846;2022-10-10T05:39:14;20.70;50.30
35495;DHT22;21608;49.300;6.846;2022-10-10T05:42:16;20.70;50.20
35495;DHT22;21608;49.300;6.846;2022-10-10T05:45:18;20.70;50.30
35495;DHT22;21608;49.300;6.846;2022-10-10T05:48:20;20.70;50.30
35495;DHT22;21608;49.300;6.846;2022-10-10T05:51:22;20.70;50.30
35495;DHT22;21608;49.300;6.846;2022-10-10T05:54:24;20.70;50.30
35495;DHT22;21608;49.300;6.846;2022-10-10T05:57:26;20.70;50.30
35495;DHT22;21608;49.300;6.846;2022-10-10T06:00:28;20.70;50.30
35495;DHT22;21608;49.300;6.846;2022-10-10T06:03:29;20.70;50.30
35495;DHT22;21608;49.300;6.846;2022-10-10T06:06:32;20.70;50.40
35495;DHT22;21608;49.300;6.846;2022-10-10T06:09:33;20.70;50.40
35495;DHT22;21608;49.300;6.846;2022-10-10T06:12:35;20.70;50.40
35495;DHT22;21608;49.300;6.846;2022-10-10T06:15:37;20.60;50.30
35495;DHT22;21608;49.300;6.846;2022-10-10T06:18:39;20.60;50.40
35495;DHT22;21608;49.300;6.846;2022-10-10T06:21:41;20.70;50.40
35495;DHT22;21608;49.300;6.846;2022-10-10T06:24:42;20.70;50.40
35495;DHT22;21608;49.300;6.846;2022-10-10T06:27:44;20.70;50.40
35495;DHT22;21608;49.300;6.846;2022-10-10T06:30:46;20.70;50.30
35495;DHT22;21608;49.300;6.846;2022-10-10T06:33:51;20.70;50.30
35495;DHT22;21608;49.300;6.846;2022-10-10T06:36:53;20.90;50.20
35495;DHT22;21608;49.300;6.846;2022-10-10T06:39:55;21.10;49.50
35495;DHT22;21608;49.300;6.846;2022-10-10T06:42:57;21.20;49.30
35495;DHT22;21608;49.300;6.846;2022-10-10T06:45:59;21.50;47.70
35495;DHT22;21608;49.300;6.846;2022-10-10T06:49:01;21.70;47.00
35495;DHT22;21608;49.300;6.846;2022-10-10T06:52:03;22.00;46.90
35495;DHT22;21608;49.300;6.846;2022-10-10T06:55:05;22.30;46.30
35495;DHT22;21608;49.300;6.846;2022-10-10T06:58:07;22.60;45.90
35495;DHT22;21608;49.300;6.846;2022-10-10T07:01:10;22.70;45.60
35495;DHT22;21608;49.300;6.846;2022-10-10T07:04:12;22.90;45.40
35495;DHT22;21608;49.300;6.846;2022-10-10T07:07:14;23.20;44.80
35495;DHT22;21608;49.300;6.846;2022-10-10T07:10:15;23.70;43.90
35495;DHT22;21608;49.300;6.846;2022-10-10T07:13:18;24.10;42.80
35495;DHT22;21608;49.300;6.846;2022-10-10T07:16:20;24.30;42.10
35495;DHT22;21608;49.300;6.846;2022-10-10T07:19:22;24.50;41.90
35495;DHT22;21608;49.300;6.846;2022-10-10T07:22:25;24.60;42.30
35495;DHT22;21608;49.300;6.846;2022-10-10T07:25:27;24.80;41.50
35495;DHT22;21608;49.300;6.846;2022-10-10T07:28:29;24.70;41.50
35495;DHT22;21608;49.300;6.846;2022-10-10T07:31:31;24.40;42.30
35495;DHT22;21608;49.300;6.846;2022-10-10T07:34:35;24.10;43.10
35495;DHT22;21608;49.300;6.846;2022-10-10T07:37:38;23.90;43.60
35495;DHT22;21608;49.300;6.846;2022-10-10T07:40:39;23.80;44.00
35495;DHT22;21608;49.300;6.846;2022-10-10T07:43:42;23.60;44.20
35495;DHT22;21608;49.300;6.846;2022-10-10T07:46:44;23.50;44.60
35495;DHT22;21608;49.300;6.846;2022-10-10T07:49:46;23.40;44.90
35495;DHT22;21608;49.300;6.846;2022-10-10T07:52:47;23.30;45.30
35495;DHT22;21608;49.300;6.846;2022-10-10T07:55:49;23.10;45.60
35495;DHT22;21608;49.300;6.846;2022-10-10T07:58:51;23.10;45.80
35495;DHT22;21608;49.300;6.846;2022-10-10T08:01:53;23.10;46.00
35495;DHT22;21608;49.300;6.846;2022-10-10T08:04:55;22.90;46.20
35495;DHT22;21608;49.300;6.846;2022-10-10T08:07:56;22.90;46.40
35495;DHT22;21608;49.300;6.846;2022-10-10T08:10:58;22.80;46.70
35495;DHT22;21608;49.300;6.846;2022-10-10T08:14:00;22.80;47.00
35495;DHT22;21608;49.300;6.846;2022-10-10T08:17:02;22.70;47.10
35495;DHT22;21608;49.300;6.846;2022-10-10T08:20:04;22.70;47.40
35495;DHT22;21608;49.300;6.846;2022-10-10T08:23:06;22.70;47.50
35495;DHT22;21608;49.300;6.846;2022-10-10T08:26:10;22.70;47.70
35495;DHT22;21608;49.300;6.846;2022-10-10T08:29:12;22.70;47.80
35495;DHT22;21608;49.300;6.846;2022-10-10T08:32:14;22.70;47.80
35495;DHT22;21608;49.300;6.846;2022-10-10T08:35:15;22.70;47.90
35495;DHT22;21608;49.300;6.846;2022-10-10T08:38:17;22.70;48.00
35495;DHT22;21608;49.300;6.846;2022-10-10T08:47:54;22.70;48.20
35495;DHT22;21608;49.300;6.846;2022-10-10T08:51:02;22.70;48.30
35495;DHT22;21608;49.300;6.846;2022-10-10T08:54:05;22.70;48.70
35495;DHT22;21608;49.300;6.846;2022-10-10T08:57:22;22.70;48.40
35495;DHT22;21608;49.300;6.846;2022-10-10T09:00:28;22.70;48.50
35495;DHT22;21608;49.300;6.846;2022-10-10T09:10:58;22.70;48.60
35495;DHT22;21608;49.300;6.846;2022-10-10T09:13:49;22.70;48.60
35495;DHT22;21608;49.300;6.846;2022-10-10T09:17:22;22.70;48.70
35495;DHT22;21608;49.300;6.846;2022-10-10T09:20:41;22.70;48.70
35495;DHT22;21608;49.300;6.846;2022-10-10T09:24:34;22.70;48.70
35495;DHT22;21608;49.300;6.846;2022-10-10T09:27:48;22.80;48.80
35495;DHT22;21608;49.300;6.846;2022-10-10T09:30:55;22.70;48.80
35495;DHT22;21608;49.300;6.846;2022-10-10T09:34:03;22.70;48.80
35495;DHT22;21608;49.300;6.846;2022-10-10T09:37:16;22.70;48.80
35495;DHT22;21608;49.300;6.846;2022-10-10T09:40:47;22.70;48.90
35495;DHT22;21608;49.300;6.846;2022-10-10T09:43:58;22.70;48.90
35495;DHT22;21608;49.300;6.846;2022-10-10T09:47:00;22.70;49.00
35495;DHT22;21608;49.300;6.846;2022-10-10T09:50:02;22.70;49.00
35495;DHT22;21608;49.300;6.846;2022-10-10T09:53:13;22.70;49.00
35495;DHT22;21608;49.300;6.846;2022-10-10T09:56:22;22.70;49.00
35495;DHT22;21608;49.300;6.846;2022-10-10T10:02:38;22.70;49.00
35495;DHT22;21608;49.300;6.846;2022-10-10T10:05:43;22.70;49.00
35495;DHT22;21608;49.300;6.846;2022-10-10T10:08:51;22.80;49.10
35495;DHT22;21608;49.300;6.846;2022-10-10T10:11:55;22.70;49.00
35495;DHT22;21608;49.300;6.846;2022-10-10T10:15:04;22.70;49.00
35495;DHT22;21608;49.300;6.846;2022-10-10T10:18:23;22.70;49.10
35495;DHT22;21608;49.300;6.846;2022-10-10T10:21:28;22.70;49.10
35495;DHT22;21608;49.300;6.846;2022-10-10T10:24:33;22.70;49.20
35495;DHT22;21608;49.300;6.846;2022-10-10T10:27:37;22.70;49.20
35495;DHT22;21608;49.300;6.846;2022-10-10T10:30:39;22.80;49.30
35495;DHT22;21608;49.300;6.846;2022-10-10T10:37:16;22.70;49.40
35495;DHT22;21608;49.300;6.846;2022-10-10T10:57:15;22.80;49.60
35495;DHT22;21608;49.300;6.846;2022-10-10T11:00:51;22.80;49.60
35495;DHT22;21608;49.300;6.846;2022-10-10T11:14:52;22.80;49.70
35495;DHT22;21608;49.300;6.846;2022-10-10T11:18:04;22.70;49.70
35495;DHT22;21608;49.300;6.846;2022-10-10T11:21:22;22.70;49.70
35495;DHT22;21608;49.300;6.846;2022-10-10T11:24:43;22.70;49.70
35495;DHT22;21608;49.300;6.846;2022-10-10T11:27:54;22.70;49.70
35495;DHT22;21608;49.300;6.846;2022-10-10T11:31:05;22.80;49.80
35495;DHT22;21608;49.300;6.846;2022-10-10T11:34:17;22.70;49.70
35495;DHT22;21608;49.300;6.846;2022-10-10T11:37:27;22.70;49.80
35495;DHT22;21608;49.300;6.846;2022-10-10T11:40:35;22.70;49.80
35495;DHT22;21608;49.300;6.846;2022-10-10T11:44:06;22.70;49.80
35495;DHT22;21608;49.300;6.846;2022-10-10T11:50:27;22.70;49.70
35495;DHT22;21608;49.300;6.846;2022-10-10T11:53:38;22.70;49.80
35495;DHT22;21608;49.300;6.846;2022-10-10T11:56:42;22.70;49.90
35495;DHT22;21608;49.300;6.846;2022-10-10T11:59:54;22.70;49.80
35495;DHT22;21608;49.300;6.846;2022-10-10T12:02:58;22.70;49.90
35495;DHT22;21608;49.300;6.846;2022-10-10T12:06:22;22.70;49.90
35495;DHT22;21608;49.300;6.846;2022-10-10T12:09:42;22.70;49.90
35495;DHT22;21608;49.300;6.846;2022-10-10T12:12:48;22.70;50.00
35495;DHT22;21608;49.300;6.846;2022-10-10T12:15:53;22.70;50.00
35495;DHT22;21608;49.300;6.846;2022-10-10T12:19:03;22.70;50.00
35495;DHT22;21608;49.300;6.846;2022-10-10T12:22:06;22.70;50.10
35495;DHT22;21608;49.300;6.846;2022-10-10T12:25:41;22.70;50.00
35495;DHT22;21608;49.300;6.846;2022-10-10T12:35:35;22.70;50.20
35495;DHT22;21608;49.300;6.846;2022-10-10T12:38:37;22.60;50.10
35495;DHT22;21608;49.300;6.846;2022-10-10T12:44:49;22.60;50.20
35495;DHT22;21608;49.300;6.846;2022-10-10T12:47:51;22.70;50.20
35495;DHT22;21608;49.300;6.846;2022-10-10T12:51:19;22.60;50.20
35495;DHT22;21608;49.300;6.846;2022-10-10T12:54:27;22.60;50.20
35495;DHT22;21608;49.300;6.846;2022-10-10T12:57:41;22.60;50.30
35495;DHT22;21608;49.300;6.846;2022-10-10T13:00:45;22.60;50.30
35495;DHT22;21608;49.300;6.846;2022-10-10T13:03:48;22.50;50.40
35495;DHT22;21608;49.300;6.846;2022-10-10T13:06:54;22.60;50.30
35495;DHT22;21608;49.300;6.846;2022-10-10T13:10:06;22.50;50.30
35495;DHT22;21608;49.300;6.846;2022-10-10T13:13:16;22.60;50.40
35495;DHT22;21608;49.300;6.846;2022-10-10T13:16:21;22.60;50.50
35495;DHT22;21608;49.300;6.846;2022-10-10T13:19:24;22.60;50.40
35495;DHT22;21608;49.300;6.846;2022-10-10T13:22:30;22.50;50.40
35495;DHT22;21608;49.300;6.846;2022-10-10T13:25:33;22.50;50.50
35495;DHT22;21608;49.300;6.846;2022-10-10T13:28:38;22.50;50.40
35495;DHT22;21608;49.300;6.846;2022-10-10T13:31:39;22.50;50.40
35495;DHT22;21608;49.300;6.846;2022-10-10T13:34:48;22.50;50.50
35495;DHT22;21608;49.300;6.846;2022-10-10T13:37:55;22.50;50.50
35495;DHT22;21608;49.300;6.846;2022-10-10T13:40:57;22.50;50.40
35495;DHT22;21608;49.300;6.846;2022-10-10T13:43:59;22.40;50.50
35495;DHT22;21608;49.300;6.846;2022-10-10T13:47:36;22.50;50.60
35495;DHT22;21608;49.300;6.846;2022-10-10T13:53:52;22.40;50.60
35495;DHT22;21608;49.300;6.846;2022-10-10T13:56:54;22.40;50.60
35495;DHT22;21608;49.300;6.846;2022-10-10T14:00:13;22.40;50.60
35495;DHT22;21608;49.300;6.846;2022-10-10T14:03:17;22.40;50.60
35495;DHT22;21608;49.300;6.846;2022-10-10T14:06:24;22.40;50.70
35495;DHT22;21608;49.300;6.846;2022-10-10T14:12:50;22.40;50.70
35495;DHT22;21608;49.300;6.846;2022-10-10T14:15:52;22.40;50.70
35495;DHT22;21608;49.300;6.846;2022-10-10T14:18:55;22.30;50.80
35495;DHT22;21608;49.300;6.846;2022-10-10T14:21:56;22.30;50.80
35495;DHT22;21608;49.300;6.846;2022-10-10T14:24:58;22.30;50.90
35495;DHT22;21608;49.300;6.846;2022-10-10T14:28:00;22.30;50.90
35495;DHT22;21608;49.300;6.846;2022-10-10T14:31:02;22.30;51.00
35495;DHT22;21608;49.300;6.846;2022-10-10T14:34:06;22.30;50.90
35495;DHT22;21608;49.300;6.846;2022-10-10T14:37:35;22.30;50.90
35495;DHT22;21608;49.300;6.846;2022-10-10T14:40:43;22.30;51.00
35495;DHT22;21608;49.300;6.846;2022-10-10T14:43:45;22.30;51.00
35495;DHT22;21608;49.300;6.846;2022-10-10T14:46:47;22.30;51.00
35495;DHT22;21608;49.300;6.846;2022-10-10T14:49:49;22.30;51.00
35495;DHT22;21608;49.300;6.846;2022-10-10T14:52:53;22.30;51.10
35495;DHT22;21608;49.300;6.846;2022-10-10T14:55:54;22.30;51.10
35495;DHT22;21608;49.300;6.846;2022-10-10T14:58:57;22.30;51.10
35495;DHT22;21608;49.300;6.846;2022-10-10T15:01:59;22.30;51.10
35495;DHT22;21608;49.300;6.846;2022-10-10T15:05:02;22.30;51.00
35495;DHT22;21608;49.300;6.846;2022-10-10T15:08:05;22.30;51.60
35495;DHT22;21608;49.300;6.846;2022-10-10T15:11:06;22.30;51.00
35495;DHT22;21608;49.300;6.846;2022-10-10T15:14:08;22.30;51.00
35495;DHT22;21608;49.300;6.846;2022-10-10T15:17:10;22.30;50.90
35495;DHT22;21608;49.300;6.846;2022-10-10T15:20:12;22.30;50.90
35495;DHT22;21608;49.300;6.846;2022-10-10T15:23:14;22.20;50.90
35495;DHT22;21608;49.300;6.846;2022-10-10T15:26:15;22.20;51.00
35495;DHT22;21608;49.300;6.846;2022-10-10T15:29:18;22.20;51.10
35495;DHT22;21608;49.300;6.846;2022-10-10T15:32:20;22.20;51.30
35495;DHT22;21608;49.300;6.846;2022-10-10T15:35:23;22.20;51.10
35495;DHT22;21608;49.300;6.846;2022-10-10T15:38:27;22.20;51.20
35495;DHT22;21608;49.300;6.846;2022-10-10T15:41:29;22.10;51.30
35495;DHT22;21608;49.300;6.846;2022-10-10T15:44:31;22.10;51.30
35495;DHT22;21608;49.300;6.846;2022-10-10T15:47:32;22.10;51.50
35495;DHT22;21608;49.300;6.846;2022-10-10T15:50:34;22.10;51.50
35495;DHT22;21608;49.300;6.846;2022-10-10T15:53:41;22.10;51.40
35495;DHT22;21608;49.300;6.846;2022-10-10T15:56:43;22.00;51.40
35495;DHT22;21608;49.300;6.846;2022-10-10T15:59:45;22.00;51.60
35495;DHT22;21608;49.300;6.846;2022-10-10T16:02:47;22.00;51.60
35495;DHT22;21608;49.300;6.846;2022-10-10T16:05:49;22.00;51.50
35495;DHT22;21608;49.300;6.846;2022-10-10T16:08:51;22.00;51.70
35495;DHT22;21608;49.300;6.846;2022-10-10T16:12:13;22.10;51.60
35495;DHT22;21608;49.300;6.846;2022-10-10T16:15:15;22.10;51.50
35495;DHT22;21608;49.300;6.846;2022-10-10T16:18:17;22.00;51.50
35495;DHT22;21608;49.300;6.846;2022-10-10T16:21:21;22.00;51.70
35495;DHT22;21608;49.300;6.846;2022-10-10T16:24:23;22.10;51.60
35495;DHT22;21608;49.300;6.846;2022-10-10T16:27:24;22.00;51.70
35495;DHT22;21608;49.300;6.846;2022-10-10T16:30:28;22.00;51.70
35495;DHT22;21608;49.300;6.846;2022-10-10T16:33:31;22.00;51.70
35495;DHT22;21608;49.300;6.846;2022-10-10T16:36:35;22.10;51.80
35495;DHT22;21608;49.300;6.846;2022-10-10T16:39:37;22.00;51.80
35495;DHT22;21608;49.300;6.846;2022-10-10T16:42:39;22.00;51.80
35495;DHT22;21608;49.300;6.846;2022-10-10T16:45:44;22.00;51.80
35495;DHT22;21608;49.300;6.846;2022-10-10T16:48:47;22.00;51.70
35495;DHT22;21608;49.300;6.846;2022-10-10T16:51:49;22.00;51.80
35495;DHT22;21608;49.300;6.846;2022-10-10T16:54:51;22.00;51.90
35495;DHT22;21608;49.300;6.846;2022-10-10T16:57:53;22.00;51.80
35495;DHT22;21608;49.300;6.846;2022-10-10T17:00:59;22.00;51.80
35495;DHT22;21608;49.300;6.846;2022-10-10T17:04:06;22.00;51.80
35495;DHT22;21608;49.300;6.846;2022-10-10T17:07:09;22.00;51.90
35495;DHT22;21608;49.300;6.846;2022-10-10T17:10:10;22.00;51.80
35495;DHT22;21608;49.300;6.846;2022-10-10T17:13:12;22.00;51.90
35495;DHT22;21608;49.300;6.846;2022-10-10T17:16:17;22.00;52.00
35495;DHT22;21608;49.300;6.846;2022-10-10T17:19:39;21.90;51.90
35495;DHT22;21608;49.300;6.846;2022-10-10T17:22:41;22.00;52.30
35495;DHT22;21608;49.300;6.846;2022-10-10T17:25:44;21.90;52.10
35495;DHT22;21608;49.300;6.846;2022-10-10T17:28:52;21.90;52.20
35495;DHT22;21608;49.300;6.846;2022-10-10T17:31:54;22.00;52.00
35495;DHT22;21608;49.300;6.846;2022-10-10T17:34:56;22.00;52.00
35495;DHT22;21608;49.300;6.846;2022-10-10T17:37:58;21.90;52.00
35495;DHT22;21608;49.300;6.846;2022-10-10T17:41:21;22.00;52.10
35495;DHT22;21608;49.300;6.846;2022-10-10T17:44:23;21.90;52.20
35495;DHT22;21608;49.300;6.846;2022-10-10T17:47:25;21.90;52.10
35495;DHT22;21608;49.300;6.846;2022-10-10T17:50:28;21.90;52.20
35495;DHT22;21608;49.300;6.846;2022-10-10T17:53:30;22.00;52.30
35495;DHT22;21608;49.300;6.846;2022-10-10T17:56:32;21.90;52.10
35495;DHT22;21608;49.300;6.846;2022-10-10T17:59:38;21.90;52.20
35495;DHT22;21608;49.300;6.846;2022-10-10T18:02:39;22.00;52.10
35495;DHT22;21608;49.300;6.846;2022-10-10T18:05:41;21.90;52.20
35495;DHT22;21608;49.300;6.846;2022-10-10T18:08:45;22.00;52.20
35495;DHT22;21608;49.300;6.846;2022-10-10T18:11:47;22.00;52.30
35495;DHT22;21608;49.300;6.846;2022-10-10T18:14:49;22.00;52.20
35495;DHT22;21608;49.300;6.846;2022-10-10T18:17:51;21.90;52.30
35495;DHT22;21608;49.300;6.846;2022-10-10T18:20:53;21.90;52.10
35495;DHT22;21608;49.300;6.846;2022-10-10T18:24:00;21.90;52.10
35495;DHT22;21608;49.300;6.846;2022-10-10T18:27:02;21.90;52.30
35495;DHT22;21608;49.300;6.846;2022-10-10T18:30:04;21.90;52.30
35495;DHT22;21608;49.300;6.846;2022-10-10T18:33:06;21.90;52.30
35495;DHT22;21608;49.300;6.846;2022-10-10T18:36:08;21.90;52.20
35495;DHT22;21608;49.300;6.846;2022-10-10T18:39:12;21.90;52.30
35495;DHT22;21608;49.300;6.846;2022-10-10T18:42:14;21.90;52.30
35495;DHT22;21608;49.300;6.846;2022-10-10T18:45:16;21.90;52.30
35495;DHT22;21608;49.300;6.846;2022-10-10T18:48:18;21.90;52.30
35495;DHT22;21608;49.300;6.846;2022-10-10T18:51:22;21.90;52.30
35495;DHT22;21608;49.300;6.846;2022-10-10T18:54:27;21.90;52.50
35495;DHT22;21608;49.300;6.846;2022-10-10T18:57:30;21.90;52.50
35495;DHT22;21608;49.300;6.846;2022-10-10T19:00:32;21.90;52.60
35495;DHT22;21608;49.300;6.846;2022-10-10T19:03:35;21.90;52.50
35495;DHT22;21608;49.300;6.846;2022-10-10T19:06:39;21.90;52.60
35495;DHT22;21608;49.300;6.846;2022-10-10T19:09:41;21.90;52.60
35495;DHT22;21608;49.300;6.846;2022-10-10T19:12:43;21.80;52.50
35495;DHT22;21608;49.300;6.846;2022-10-10T19:15:48;21.80;52.50
35495;DHT22;21608;49.300;6.846;2022-10-10T19:18:52;21.90;52.50
35495;DHT22;21608;49.300;6.846;2022-10-10T19:21:58;21.90;52.60
35495;DHT22;21608;49.300;6.846;2022-10-10T19:25:00;21.80;52.60
35495;DHT22;21608;49.300;6.846;2022-10-10T19:28:04;21.80;52.60
35495;DHT22;21608;49.300;6.846;2022-10-10T19:31:11;21.80;52.60
35495;DHT22;21608;49.300;6.846;2022-10-10T19:34:13;21.80;52.60
35495;DHT22;21608;49.300;6.846;2022-10-10T19:37:15;21.80;52.60
35495;DHT22;21608;49.300;6.846;2022-10-10T19:40:17;21.80;52.50
35495;DHT22;21608;49.300;6.846;2022-10-10T19:43:19;21.80;52.50
35495;DHT22;21608;49.300;6.846;2022-10-10T19:46:22;21.80;52.70
35495;DHT22;21608;49.300;6.846;2022-10-10T19:49:24;21.80;52.60
35495;DHT22;21608;49.300;6.846;2022-10-10T19:52:26;21.80;52.60
35495;DHT22;21608;49.300;6.846;2022-10-10T19:55:27;21.80;52.50
35495;DHT22;21608;49.300;6.846;2022-10-10T19:58:29;21.80;52.60
35495;DHT22;21608;49.300;6.846;2022-10-10T20:01:31;21.80;52.80
35495;DHT22;21608;49.300;6.846;2022-10-10T20:04:33;21.80;52.90
35495;DHT22;21608;49.300;6.846;2022-10-10T20:07:35;21.80;52.80
35495;DHT22;21608;49.300;6.846;2022-10-10T20:10:41;21.80;52.80
35495;DHT22;21608;49.300;6.846;2022-10-10T20:13:43;21.80;53.00
35495;DHT22;21608;49.300;6.846;2022-10-10T20:16:45;21.80;52.90
35495;DHT22;21608;49.300;6.846;2022-10-10T20:19:47;21.80;52.90
35495;DHT22;21608;49.300;6.846;2022-10-10T20:22:48;21.80;52.90
35495;DHT22;21608;49.300;6.846;2022-10-10T20:25:50;21.80;52.80
35495;DHT22;21608;49.300;6.846;2022-10-10T20:28:53;21.80;52.80
35495;DHT22;21608;49.300;6.846;2022-10-10T20:31:55;21.90;52.90
35495;DHT22;21608;49.300;6.846;2022-10-10T20:34:57;21.80;52.80
35495;DHT22;21608;49.300;6.846;2022-10-10T20:37:59;21.80;52.90
35495;DHT22;21608;49.300;6.846;2022-10-10T20:41:01;21.80;52.90
35495;DHT22;21608;49.300;6.846;2022-10-10T20:44:07;21.80;53.00
35495;DHT22;21608;49.300;6.846;2022-10-10T20:47:10;21.80;52.90
35495;DHT22;21608;49.300;6.846;2022-10-10T20:50:13;21.80;53.00
35495;DHT22;21608;49.300;6.846;2022-10-10T20:53:14;21.80;53.50
35495;DHT22;21608;49.300;6.846;2022-10-10T20:56:16;21.80;52.80
35495;DHT22;21608;49.300;6.846;2022-10-10T20:59:19;21.80;52.90